sensor_id;sensor_type;location;lat;lon;timestamp;P1;durP1;ratioP1;P2;durP2;ratioP2
28028;SDS011;15345;59.364;18.016;2024-03-29T00:00:20;41.45;;;20.65;;
28028;SDS011;15345;59.364;18.016;2024-03-29T00:01:39;39.35;;;20.77;;
28028;SDS011;15345;59.364;18.016;2024-03-29T00:02:58;37.15;;;20.75;;
28028;SDS011;15345;59.364;18.016;2024-03-29T00:04:18;36.33;;;20.00;;
28028;SDS011;15345;59.364;18.016;2024-03-29T00:05:37;34.33;;;20.13;;
28028;SDS011;15345;59.364;18.016;2024-03-29T00:06:56;39.65;;;20.05;;
28028;SDS011;15345;59.364;18.016;2024-03-29T00:08:15;41.95;;;21.02;;
28028;SDS011;15345;59.364;18.016;2024-03-29T00:09:34;53.85;;;20.60;;
28028;SDS011;15345;59.364;18.016;2024-03-29T00:10:53;42.67;;;20.83;;
28028;SDS011;15345;59.364;18.016;2024-03-29T00:12:12;43.45;;;20.38;;
28028;SDS011;15345;59.364;18.016;2024-03-29T00:13:31;44.78;;;21.02;;
28028;SDS011;15345;59.364;18.016;2024-03-29T00:14:51;42.42;;;21.63;;
28028;SDS011;15345;59.364;18.016;2024-03-29T00:16:10;46.65;;;21.42;;
28028;SDS011;15345;59.364;18.016;2024-03-29T00:17:30;55.55;;;22.67;;
28028;SDS011;15345;59.364;18.016;2024-03-29T00:18:49;43.10;;;21.05;;
28028;SDS011;15345;59.364;18.016;2024-03-29T00:20:08;41.75;;;21.02;;
28028;SDS011;15345;59.364;18.016;2024-03-29T00:21:27;54.03;;;22.48;;
28028;SDS011;15345;59.364;18.016;2024-03-29T00:22:47;43.85;;;21.45;;
28028;SDS011;15345;59.364;18.016;2024-03-29T00:24:06;38.33;;;21.95;;
28028;SDS011;15345;59.364;18.016;2024-03-29T00:25:25;53.25;;;22.13;;
28028;SDS011;15345;59.364;18.016;2024-03-29T00:26:44;42.00;;;21.73;;
28028;SDS011;15345;59.364;18.016;2024-03-29T00:28:03;41.28;;;21.20;;
28028;SDS011;15345;59.364;18.016;2024-03-29T00:29:22;56.72;;;21.80;;
28028;SDS011;15345;59.364;18.016;2024-03-29T00:30:41;46.03;;;20.65;;
28028;SDS011;15345;59.364;18.016;2024-03-29T00:32:00;40.25;;;20.67;;
28028;SDS011;15345;59.364;18.016;2024-03-29T00:33:19;56.13;;;21.95;;
28028;SDS011;15345;59.364;18.016;2024-03-29T00:34:38;52.17;;;21.52;;
28028;SDS011;15345;59.364;18.016;2024-03-29T00:35:57;43.85;;;21.42;;
28028;SDS011;15345;59.364;18.016;2024-03-29T00:37:16;51.22;;;21.75;;
28028;SDS011;15345;59.364;18.016;2024-03-29T00:38:35;48.58;;;21.17;;
28028;SDS011;15345;59.364;18.016;2024-03-29T00:39:54;51.47;;;21.75;;
28028;SDS011;15345;59.364;18.016;2024-03-29T00:41:13;43.78;;;20.85;;
28028;SDS011;15345;59.364;18.016;2024-03-29T00:42:32;44.78;;;20.13;;
28028;SDS011;15345;59.364;18.016;2024-03-29T00:43:51;46.58;;;21.08;;
28028;SDS011;15345;59.364;18.016;2024-03-29T00:45:10;39.78;;;21.50;;
28028;SDS011;15345;59.364;18.016;2024-03-29T00:46:29;44.17;;;22.52;;
28028;SDS011;15345;59.364;18.016;2024-03-29T00:47:48;47.78;;;22.50;;
28028;SDS011;15345;59.364;18.016;2024-03-29T00:49:07;46.75;;;22.98;;
28028;SDS011;15345;59.364;18.016;2024-03-29T00:50:26;52.65;;;22.25;;
28028;SDS011;15345;59.364;18.016;2024-03-29T00:51:45;51.08;;;22.98;;
28028;SDS011;15345;59.364;18.016;2024-03-29T00:53:04;51.40;;;23.67;;
28028;SDS011;15345;59.364;18.016;2024-03-29T00:54:23;47.90;;;22.80;;
28028;SDS011;15345;59.364;18.016;2024-03-29T00:55:42;59.75;;;25.15;;
28028;SDS011;15345;59.364;18.016;2024-03-29T00:57:01;44.75;;;23.55;;
28028;SDS011;15345;59.364;18.016;2024-03-29T00:58:20;55.40;;;24.17;;
28028;SDS011;15345;59.364;18.016;2024-03-29T00:59:38;48.70;;;23.60;;
28028;SDS011;15345;59.364;18.016;2024-03-29T01:00:57;62.47;;;25.73;;
28028;SDS011;15345;59.364;18.016;2024-03-29T01:02:16;54.78;;;24.73;;
28028;SDS011;15345;59.364;18.016;2024-03-29T01:03:35;66.15;;;25.63;;
28028;SDS011;15345;59.364;18.016;2024-03-29T01:04:54;63.45;;;25.95;;
28028;SDS011;15345;59.364;18.016;2024-03-29T01:06:13;53.38;;;25.42;;
28028;SDS011;15345;59.364;18.016;2024-03-29T01:07:33;65.18;;;25.88;;
28028;SDS011;15345;59.364;18.016;2024-03-29T01:08:52;58.92;;;25.67;;
28028;SDS011;15345;59.364;18.016;2024-03-29T01:10:10;68.63;;;26.48;;
28028;SDS011;15345;59.364;18.016;2024-03-29T01:11:30;69.55;;;26.98;;
28028;SDS011;15345;59.364;18.016;2024-03-29T01:12:49;75.88;;;29.17;;
28028;SDS011;15345;59.364;18.016;2024-03-29T01:14:08;56.50;;;27.42;;
28028;SDS011;15345;59.364;18.016;2024-03-29T01:15:27;70.13;;;27.90;;
28028;SDS011;15345;59.364;18.016;2024-03-29T01:16:46;60.03;;;28.10;;
28028;SDS011;15345;59.364;18.016;2024-03-29T01:18:05;67.85;;;27.25;;
28028;SDS011;15345;59.364;18.016;2024-03-29T01:19:23;68.00;;;27.98;;
28028;SDS011;15345;59.364;18.016;2024-03-29T01:20:42;69.72;;;27.20;;
28028;SDS011;15345;59.364;18.016;2024-03-29T01:22:01;74.97;;;29.17;;
28028;SDS011;15345;59.364;18.016;2024-03-29T01:23:20;66.82;;;28.17;;
28028;SDS011;15345;59.364;18.016;2024-03-29T01:24:39;96.43;;;29.48;;
28028;SDS011;15345;59.364;18.016;2024-03-29T01:25:58;68.35;;;28.63;;
28028;SDS011;15345;59.364;18.016;2024-03-29T01:27:17;71.65;;;29.67;;
28028;SDS011;15345;59.364;18.016;2024-03-29T01:28:36;62.88;;;27.65;;
28028;SDS011;15345;59.364;18.016;2024-03-29T01:29:56;93.65;;;31.02;;
28028;SDS011;15345;59.364;18.016;2024-03-29T01:31:16;64.72;;;28.38;;
28028;SDS011;15345;59.364;18.016;2024-03-29T01:32:35;63.33;;;28.60;;
28028;SDS011;15345;59.364;18.016;2024-03-29T01:33:54;58.75;;;27.25;;
28028;SDS011;15345;59.364;18.016;2024-03-29T01:35:16;64.03;;;28.17;;
28028;SDS011;15345;59.364;18.016;2024-03-29T01:36:35;66.00;;;29.00;;
28028;SDS011;15345;59.364;18.016;2024-03-29T01:37:54;62.63;;;27.90;;
28028;SDS011;15345;59.364;18.016;2024-03-29T01:39:13;65.63;;;28.45;;
28028;SDS011;15345;59.364;18.016;2024-03-29T01:40:34;75.55;;;29.80;;
28028;SDS011;15345;59.364;18.016;2024-03-29T01:41:53;64.65;;;28.63;;
28028;SDS011;15345;59.364;18.016;2024-03-29T01:43:12;77.38;;;29.80;;
28028;SDS011;15345;59.364;18.016;2024-03-29T01:44:31;63.38;;;28.80;;
28028;SDS011;15345;59.364;18.016;2024-03-29T01:45:51;68.50;;;29.13;;
28028;SDS011;15345;59.364;18.016;2024-03-29T01:47:12;70.18;;;29.35;;
28028;SDS011;15345;59.364;18.016;2024-03-29T01:48:34;63.35;;;28.80;;
28028;SDS011;15345;59.364;18.016;2024-03-29T01:49:53;68.63;;;29.00;;
28028;SDS011;15345;59.364;18.016;2024-03-29T01:51:13;57.33;;;29.23;;
28028;SDS011;15345;59.364;18.016;2024-03-29T01:52:32;64.13;;;29.25;;
28028;SDS011;15345;59.364;18.016;2024-03-29T01:53:52;62.38;;;26.90;;
28028;SDS011;15345;59.364;18.016;2024-03-29T01:55:13;61.15;;;27.40;;
28028;SDS011;15345;59.364;18.016;2024-03-29T01:56:32;64.28;;;29.10;;
28028;SDS011;15345;59.364;18.016;2024-03-29T01:57:51;61.53;;;27.92;;
28028;SDS011;15345;59.364;18.016;2024-03-29T01:59:12;63.30;;;28.95;;
28028;SDS011;15345;59.364;18.016;2024-03-29T02:00:32;56.45;;;27.27;;
28028;SDS011;15345;59.364;18.016;2024-03-29T02:01:52;58.10;;;27.00;;
28028;SDS011;15345;59.364;18.016;2024-03-29T02:03:11;53.90;;;27.33;;
28028;SDS011;15345;59.364;18.016;2024-03-29T02:04:32;61.40;;;27.38;;
28028;SDS011;15345;59.364;18.016;2024-03-29T02:05:52;64.97;;;27.98;;
28028;SDS011;15345;59.364;18.016;2024-03-29T02:07:11;58.15;;;28.50;;
28028;SDS011;15345;59.364;18.016;2024-03-29T02:08:34;57.55;;;27.50;;
28028;SDS011;15345;59.364;18.016;2024-03-29T02:09:53;59.05;;;26.23;;
28028;SDS011;15345;59.364;18.016;2024-03-29T02:11:12;61.42;;;27.13;;
28028;SDS011;15345;59.364;18.016;2024-03-29T02:12:31;56.33;;;27.15;;
28028;SDS011;15345;59.364;18.016;2024-03-29T02:13:50;57.00;;;26.13;;
28028;SDS011;15345;59.364;18.016;2024-03-29T02:15:13;59.72;;;26.88;;
28028;SDS011;15345;59.364;18.016;2024-03-29T02:16:33;55.97;;;26.90;;
28028;SDS011;15345;59.364;18.016;2024-03-29T02:17:52;60.83;;;28.70;;
28028;SDS011;15345;59.364;18.016;2024-03-29T02:19:10;59.03;;;28.30;;
28028;SDS011;15345;59.364;18.016;2024-03-29T02:20:29;57.42;;;27.38;;
28028;SDS011;15345;59.364;18.016;2024-03-29T02:21:50;54.28;;;27.27;;
28028;SDS011;15345;59.364;18.016;2024-03-29T02:23:11;53.58;;;25.15;;
28028;SDS011;15345;59.364;18.016;2024-03-29T02:24:31;51.40;;;26.83;;
28028;SDS011;15345;59.364;18.016;2024-03-29T02:25:50;51.08;;;25.80;;
28028;SDS011;15345;59.364;18.016;2024-03-29T02:27:09;52.90;;;25.65;;
28028;SDS011;15345;59.364;18.016;2024-03-29T02:28:28;55.17;;;27.90;;
28028;SDS011;15345;59.364;18.016;2024-03-29T02:29:46;52.15;;;27.52;;
28028;SDS011;15345;59.364;18.016;2024-03-29T02:31:06;59.67;;;27.90;;
28028;SDS011;15345;59.364;18.016;2024-03-29T02:32:26;52.33;;;26.65;;
28028;SDS011;15345;59.364;18.016;2024-03-29T02:33:45;49.67;;;24.90;;
28028;SDS011;15345;59.364;18.016;2024-03-29T02:35:04;48.80;;;25.30;;
28028;SDS011;15345;59.364;18.016;2024-03-29T02:36:24;52.30;;;25.33;;
28028;SDS011;15345;59.364;18.016;2024-03-29T02:37:43;49.40;;;25.13;;
28028;SDS011;15345;59.364;18.016;2024-03-29T02:39:02;51.47;;;24.50;;
28028;SDS011;15345;59.364;18.016;2024-03-29T02:40:21;45.70;;;24.60;;
28028;SDS011;15345;59.364;18.016;2024-03-29T02:41:40;47.78;;;24.08;;
28028;SDS011;15345;59.364;18.016;2024-03-29T02:42:59;42.22;;;23.30;;
28028;SDS011;15345;59.364;18.016;2024-03-29T02:44:17;42.60;;;21.80;;
28028;SDS011;15345;59.364;18.016;2024-03-29T02:45:37;39.08;;;21.52;;
28028;SDS011;15345;59.364;18.016;2024-03-29T02:46:55;39.42;;;22.05;;
28028;SDS011;15345;59.364;18.016;2024-03-29T02:48:14;37.45;;;21.98;;
28028;SDS011;15345;59.364;18.016;2024-03-29T02:49:33;41.75;;;22.45;;
28028;SDS011;15345;59.364;18.016;2024-03-29T02:50:52;37.72;;;22.45;;
28028;SDS011;15345;59.364;18.016;2024-03-29T02:52:11;39.88;;;21.77;;
28028;SDS011;15345;59.364;18.016;2024-03-29T02:53:30;41.28;;;22.95;;
28028;SDS011;15345;59.364;18.016;2024-03-29T02:54:49;35.17;;;21.63;;
28028;SDS011;15345;59.364;18.016;2024-03-29T02:56:08;39.53;;;21.23;;
28028;SDS011;15345;59.364;18.016;2024-03-29T02:57:27;38.60;;;22.33;;
28028;SDS011;15345;59.364;18.016;2024-03-29T02:58:47;41.00;;;21.92;;
28028;SDS011;15345;59.364;18.016;2024-03-29T03:00:06;39.83;;;22.60;;
28028;SDS011;15345;59.364;18.016;2024-03-29T03:01:26;38.97;;;21.17;;
28028;SDS011;15345;59.364;18.016;2024-03-29T03:02:45;37.25;;;20.88;;
28028;SDS011;15345;59.364;18.016;2024-03-29T03:04:07;35.78;;;21.13;;
28028;SDS011;15345;59.364;18.016;2024-03-29T03:05:25;34.53;;;18.98;;
28028;SDS011;15345;59.364;18.016;2024-03-29T03:06:44;36.53;;;20.67;;
28028;SDS011;15345;59.364;18.016;2024-03-29T03:08:03;35.03;;;19.75;;
28028;SDS011;15345;59.364;18.016;2024-03-29T03:09:41;37.20;;;20.48;;
28028;SDS011;15345;59.364;18.016;2024-03-29T03:11:19;37.95;;;20.83;;
28028;SDS011;15345;59.364;18.016;2024-03-29T03:12:38;36.10;;;19.20;;
28028;SDS011;15345;59.364;18.016;2024-03-29T03:13:57;35.45;;;20.25;;
28028;SDS011;15345;59.364;18.016;2024-03-29T03:15:16;33.65;;;18.98;;
28028;SDS011;15345;59.364;18.016;2024-03-29T03:16:35;32.47;;;19.33;;
28028;SDS011;15345;59.364;18.016;2024-03-29T03:17:54;30.80;;;19.05;;
28028;SDS011;15345;59.364;18.016;2024-03-29T03:19:13;31.45;;;18.92;;
28028;SDS011;15345;59.364;18.016;2024-03-29T03:20:33;31.38;;;18.70;;
28028;SDS011;15345;59.364;18.016;2024-03-29T03:21:52;34.97;;;19.13;;
28028;SDS011;15345;59.364;18.016;2024-03-29T03:23:11;31.60;;;18.70;;
28028;SDS011;15345;59.364;18.016;2024-03-29T03:24:30;32.80;;;19.58;;
28028;SDS011;15345;59.364;18.016;2024-03-29T03:25:56;28.98;;;17.95;;
28028;SDS011;15345;59.364;18.016;2024-03-29T03:27:15;31.20;;;18.10;;
28028;SDS011;15345;59.364;18.016;2024-03-29T03:28:34;32.58;;;18.90;;
28028;SDS011;15345;59.364;18.016;2024-03-29T03:29:54;29.73;;;19.15;;
28028;SDS011;15345;59.364;18.016;2024-03-29T03:31:13;32.33;;;19.02;;
28028;SDS011;15345;59.364;18.016;2024-03-29T03:32:32;30.40;;;18.83;;
28028;SDS011;15345;59.364;18.016;2024-03-29T03:33:51;29.75;;;18.83;;
28028;SDS011;15345;59.364;18.016;2024-03-29T03:35:10;32.60;;;18.23;;
28028;SDS011;15345;59.364;18.016;2024-03-29T03:36:29;30.17;;;17.48;;
28028;SDS011;15345;59.364;18.016;2024-03-29T03:37:48;32.35;;;18.27;;
28028;SDS011;15345;59.364;18.016;2024-03-29T03:39:07;33.25;;;18.77;;
28028;SDS011;15345;59.364;18.016;2024-03-29T03:40:26;32.17;;;18.45;;
28028;SDS011;15345;59.364;18.016;2024-03-29T03:41:45;35.15;;;18.95;;
28028;SDS011;15345;59.364;18.016;2024-03-29T03:43:06;34.33;;;20.00;;
28028;SDS011;15345;59.364;18.016;2024-03-29T03:44:25;34.38;;;20.42;;
28028;SDS011;15345;59.364;18.016;2024-03-29T03:45:44;30.42;;;19.83;;
28028;SDS011;15345;59.364;18.016;2024-03-29T03:47:03;37.63;;;20.80;;
28028;SDS011;15345;59.364;18.016;2024-03-29T03:48:22;35.15;;;20.40;;
28028;SDS011;15345;59.364;18.016;2024-03-29T03:49:41;35.47;;;19.98;;
28028;SDS011;15345;59.364;18.016;2024-03-29T03:51:00;33.88;;;20.38;;
28028;SDS011;15345;59.364;18.016;2024-03-29T03:52:18;37.50;;;19.52;;
28028;SDS011;15345;59.364;18.016;2024-03-29T03:53:37;37.67;;;20.70;;
28028;SDS011;15345;59.364;18.016;2024-03-29T03:54:56;36.45;;;20.77;;
28028;SDS011;15345;59.364;18.016;2024-03-29T03:56:15;39.38;;;21.65;;
28028;SDS011;15345;59.364;18.016;2024-03-29T03:57:34;42.25;;;21.88;;
28028;SDS011;15345;59.364;18.016;2024-03-29T03:58:53;32.78;;;20.77;;
28028;SDS011;15345;59.364;18.016;2024-03-29T04:00:12;39.20;;;21.17;;
28028;SDS011;15345;59.364;18.016;2024-03-29T04:01:32;41.15;;;21.95;;
28028;SDS011;15345;59.364;18.016;2024-03-29T04:02:51;40.10;;;21.73;;
28028;SDS011;15345;59.364;18.016;2024-03-29T04:04:10;40.58;;;21.83;;
28028;SDS011;15345;59.364;18.016;2024-03-29T04:05:29;37.42;;;21.00;;
28028;SDS011;15345;59.364;18.016;2024-03-29T04:06:50;39.65;;;21.13;;
28028;SDS011;15345;59.364;18.016;2024-03-29T04:08:09;36.92;;;21.90;;
28028;SDS011;15345;59.364;18.016;2024-03-29T04:09:28;45.53;;;22.67;;
28028;SDS011;15345;59.364;18.016;2024-03-29T04:10:47;40.08;;;21.17;;
28028;SDS011;15345;59.364;18.016;2024-03-29T04:12:06;44.50;;;22.67;;
28028;SDS011;15345;59.364;18.016;2024-03-29T04:13:26;43.17;;;21.95;;
28028;SDS011;15345;59.364;18.016;2024-03-29T04:14:45;43.20;;;23.17;;
28028;SDS011;15345;59.364;18.016;2024-03-29T04:16:04;38.63;;;21.85;;
28028;SDS011;15345;59.364;18.016;2024-03-29T04:17:24;42.17;;;22.83;;
28028;SDS011;15345;59.364;18.016;2024-03-29T04:18:43;42.40;;;21.67;;
28028;SDS011;15345;59.364;18.016;2024-03-29T04:20:02;43.25;;;22.85;;
28028;SDS011;15345;59.364;18.016;2024-03-29T04:21:21;43.72;;;23.48;;
28028;SDS011;15345;59.364;18.016;2024-03-29T04:22:40;41.50;;;22.83;;
28028;SDS011;15345;59.364;18.016;2024-03-29T04:23:59;41.42;;;22.67;;
28028;SDS011;15345;59.364;18.016;2024-03-29T04:25:18;43.55;;;22.85;;
28028;SDS011;15345;59.364;18.016;2024-03-29T04:26:36;41.35;;;21.77;;
28028;SDS011;15345;59.364;18.016;2024-03-29T04:27:58;40.90;;;21.42;;
28028;SDS011;15345;59.364;18.016;2024-03-29T04:29:17;43.30;;;23.83;;
28028;SDS011;15345;59.364;18.016;2024-03-29T04:30:36;37.60;;;21.45;;
28028;SDS011;15345;59.364;18.016;2024-03-29T04:31:55;38.83;;;22.17;;
28028;SDS011;15345;59.364;18.016;2024-03-29T04:33:14;40.00;;;21.35;;
28028;SDS011;15345;59.364;18.016;2024-03-29T04:34:33;41.80;;;22.33;;
28028;SDS011;15345;59.364;18.016;2024-03-29T04:36:02;41.45;;;21.80;;
28028;SDS011;15345;59.364;18.016;2024-03-29T04:37:22;39.47;;;20.77;;
28028;SDS011;15345;59.364;18.016;2024-03-29T04:38:40;36.53;;;21.33;;
28028;SDS011;15345;59.364;18.016;2024-03-29T04:40:00;39.05;;;22.13;;
28028;SDS011;15345;59.364;18.016;2024-03-29T04:41:22;37.53;;;21.15;;
28028;SDS011;15345;59.364;18.016;2024-03-29T04:42:41;44.25;;;23.13;;
28028;SDS011;15345;59.364;18.016;2024-03-29T04:44:00;43.00;;;23.15;;
28028;SDS011;15345;59.364;18.016;2024-03-29T04:45:21;42.42;;;21.25;;
28028;SDS011;15345;59.364;18.016;2024-03-29T04:46:40;41.20;;;22.38;;
28028;SDS011;15345;59.364;18.016;2024-03-29T04:47:59;37.08;;;21.52;;
28028;SDS011;15345;59.364;18.016;2024-03-29T04:49:18;42.50;;;22.38;;
28028;SDS011;15345;59.364;18.016;2024-03-29T04:50:41;40.78;;;22.17;;
28028;SDS011;15345;59.364;18.016;2024-03-29T04:52:00;43.95;;;22.10;;
28028;SDS011;15345;59.364;18.016;2024-03-29T04:53:19;39.97;;;21.65;;
28028;SDS011;15345;59.364;18.016;2024-03-29T04:54:38;44.15;;;23.27;;
28028;SDS011;15345;59.364;18.016;2024-03-29T04:55:57;46.30;;;22.98;;
28028;SDS011;15345;59.364;18.016;2024-03-29T04:57:16;38.90;;;22.38;;
28028;SDS011;15345;59.364;18.016;2024-03-29T04:58:35;38.88;;;21.58;;
28028;SDS011;15345;59.364;18.016;2024-03-29T04:59:54;38.08;;;22.05;;
28028;SDS011;15345;59.364;18.016;2024-03-29T05:01:13;41.50;;;22.42;;
28028;SDS011;15345;59.364;18.016;2024-03-29T05:02:32;46.42;;;22.92;;
28028;SDS011;15345;59.364;18.016;2024-03-29T05:03:51;44.25;;;23.08;;
28028;SDS011;15345;59.364;18.016;2024-03-29T05:05:10;41.22;;;21.80;;
28028;SDS011;15345;59.364;18.016;2024-03-29T05:06:29;39.08;;;22.13;;
28028;SDS011;15345;59.364;18.016;2024-03-29T05:07:48;38.42;;;21.65;;
28028;SDS011;15345;59.364;18.016;2024-03-29T05:09:07;42.65;;;22.17;;
28028;SDS011;15345;59.364;18.016;2024-03-29T05:10:26;41.38;;;22.20;;
28028;SDS011;15345;59.364;18.016;2024-03-29T05:11:46;40.05;;;22.88;;
28028;SDS011;15345;59.364;18.016;2024-03-29T05:13:08;38.63;;;21.95;;
28028;SDS011;15345;59.364;18.016;2024-03-29T05:14:27;41.28;;;23.13;;
28028;SDS011;15345;59.364;18.016;2024-03-29T05:15:46;41.00;;;22.42;;
28028;SDS011;15345;59.364;18.016;2024-03-29T05:17:06;41.33;;;22.27;;
28028;SDS011;15345;59.364;18.016;2024-03-29T05:18:25;41.65;;;21.63;;
28028;SDS011;15345;59.364;18.016;2024-03-29T05:19:43;42.88;;;22.88;;
28028;SDS011;15345;59.364;18.016;2024-03-29T05:21:03;43.97;;;22.90;;
28028;SDS011;15345;59.364;18.016;2024-03-29T05:22:22;44.10;;;23.38;;
28028;SDS011;15345;59.364;18.016;2024-03-29T05:23:41;39.78;;;21.00;;
28028;SDS011;15345;59.364;18.016;2024-03-29T05:25:00;41.95;;;22.77;;
28028;SDS011;15345;59.364;18.016;2024-03-29T05:26:19;51.00;;;24.17;;
28028;SDS011;15345;59.364;18.016;2024-03-29T05:27:38;40.42;;;22.70;;
28028;SDS011;15345;59.364;18.016;2024-03-29T05:28:57;47.47;;;24.15;;
28028;SDS011;15345;59.364;18.016;2024-03-29T05:30:19;43.92;;;23.02;;
28028;SDS011;15345;59.364;18.016;2024-03-29T05:31:38;42.15;;;22.85;;
28028;SDS011;15345;59.364;18.016;2024-03-29T05:32:57;43.05;;;23.25;;
28028;SDS011;15345;59.364;18.016;2024-03-29T05:34:16;38.83;;;22.52;;
28028;SDS011;15345;59.364;18.016;2024-03-29T05:35:35;40.08;;;22.98;;
28028;SDS011;15345;59.364;18.016;2024-03-29T05:36:54;39.53;;;22.35;;
28028;SDS011;15345;59.364;18.016;2024-03-29T05:38:12;42.22;;;22.63;;
28028;SDS011;15345;59.364;18.016;2024-03-29T05:39:31;40.67;;;21.88;;
28028;SDS011;15345;59.364;18.016;2024-03-29T05:40:50;41.28;;;21.88;;
28028;SDS011;15345;59.364;18.016;2024-03-29T05:42:09;38.72;;;21.60;;
28028;SDS011;15345;59.364;18.016;2024-03-29T05:43:28;39.00;;;22.23;;
28028;SDS011;15345;59.364;18.016;2024-03-29T05:44:47;41.22;;;21.75;;
28028;SDS011;15345;59.364;18.016;2024-03-29T05:46:05;46.13;;;23.92;;
28028;SDS011;15345;59.364;18.016;2024-03-29T05:47:24;44.13;;;23.17;;
28028;SDS011;15345;59.364;18.016;2024-03-29T05:48:43;42.67;;;22.40;;
28028;SDS011;15345;59.364;18.016;2024-03-29T05:50:02;43.70;;;21.92;;
28028;SDS011;15345;59.364;18.016;2024-03-29T05:51:21;43.80;;;23.10;;
28028;SDS011;15345;59.364;18.016;2024-03-29T05:52:40;47.70;;;24.45;;
28028;SDS011;15345;59.364;18.016;2024-03-29T05:53:59;42.33;;;24.65;;
28028;SDS011;15345;59.364;18.016;2024-03-29T05:55:18;45.58;;;22.33;;
28028;SDS011;15345;59.364;18.016;2024-03-29T05:56:37;44.75;;;21.98;;
28028;SDS011;15345;59.364;18.016;2024-03-29T05:57:57;46.95;;;22.90;;
28028;SDS011;15345;59.364;18.016;2024-03-29T05:59:16;43.55;;;22.15;;
28028;SDS011;15345;59.364;18.016;2024-03-29T06:00:35;40.20;;;20.67;;
28028;SDS011;15345;59.364;18.016;2024-03-29T06:01:54;43.05;;;22.10;;
28028;SDS011;15345;59.364;18.016;2024-03-29T06:03:12;40.75;;;22.52;;
28028;SDS011;15345;59.364;18.016;2024-03-29T06:04:32;43.33;;;22.17;;
28028;SDS011;15345;59.364;18.016;2024-03-29T06:05:51;41.33;;;21.20;;
28028;SDS011;15345;59.364;18.016;2024-03-29T06:07:10;44.78;;;22.95;;
28028;SDS011;15345;59.364;18.016;2024-03-29T06:08:29;43.00;;;22.23;;
28028;SDS011;15345;59.364;18.016;2024-03-29T06:09:47;41.33;;;22.20;;
28028;SDS011;15345;59.364;18.016;2024-03-29T06:11:06;36.95;;;20.40;;
28028;SDS011;15345;59.364;18.016;2024-03-29T06:12:25;42.70;;;21.30;;
28028;SDS011;15345;59.364;18.016;2024-03-29T06:13:45;42.25;;;21.75;;
28028;SDS011;15345;59.364;18.016;2024-03-29T06:15:13;39.35;;;20.95;;
28028;SDS011;15345;59.364;18.016;2024-03-29T06:16:51;42.28;;;21.17;;
28028;SDS011;15345;59.364;18.016;2024-03-29T06:18:29;43.60;;;21.90;;
28028;SDS011;15345;59.364;18.016;2024-03-29T06:19:51;41.47;;;21.95;;
28028;SDS011;15345;59.364;18.016;2024-03-29T06:21:10;37.88;;;20.33;;
28028;SDS011;15345;59.364;18.016;2024-03-29T06:22:29;36.90;;;20.67;;
28028;SDS011;15345;59.364;18.016;2024-03-29T06:23:48;39.80;;;20.60;;
28028;SDS011;15345;59.364;18.016;2024-03-29T06:25:08;36.75;;;20.05;;
28028;SDS011;15345;59.364;18.016;2024-03-29T06:26:28;33.00;;;19.40;;
28028;SDS011;15345;59.364;18.016;2024-03-29T06:27:47;38.25;;;21.25;;
28028;SDS011;15345;59.364;18.016;2024-03-29T06:29:09;37.87;;;20.03;;
28028;SDS011;15345;59.364;18.016;2024-03-29T06:30:29;33.80;;;17.88;;
28028;SDS011;15345;59.364;18.016;2024-03-29T06:31:47;37.55;;;19.50;;
28028;SDS011;15345;59.364;18.016;2024-03-29T06:33:06;36.70;;;20.02;;
28028;SDS011;15345;59.364;18.016;2024-03-29T06:34:29;31.60;;;18.63;;
28028;SDS011;15345;59.364;18.016;2024-03-29T06:35:54;34.22;;;18.50;;
28028;SDS011;15345;59.364;18.016;2024-03-29T06:37:13;34.70;;;18.98;;
28028;SDS011;15345;59.364;18.016;2024-03-29T06:38:33;29.45;;;17.63;;
28028;SDS011;15345;59.364;18.016;2024-03-29T06:39:53;30.80;;;17.98;;
28028;SDS011;15345;59.364;18.016;2024-03-29T06:41:12;33.10;;;18.25;;
28028;SDS011;15345;59.364;18.016;2024-03-29T06:42:31;36.20;;;18.88;;
28028;SDS011;15345;59.364;18.016;2024-03-29T06:43:51;26.65;;;16.48;;
28028;SDS011;15345;59.364;18.016;2024-03-29T06:45:10;31.38;;;17.42;;
28028;SDS011;15345;59.364;18.016;2024-03-29T06:46:29;29.20;;;17.77;;
28028;SDS011;15345;59.364;18.016;2024-03-29T06:47:47;29.15;;;17.52;;
28028;SDS011;15345;59.364;18.016;2024-03-29T06:49:07;30.92;;;17.15;;
28028;SDS011;15345;59.364;18.016;2024-03-29T06:50:26;30.88;;;16.13;;
28028;SDS011;15345;59.364;18.016;2024-03-29T06:51:45;26.80;;;17.13;;
28028;SDS011;15345;59.364;18.016;2024-03-29T06:53:04;27.85;;;17.13;;
28028;SDS011;15345;59.364;18.016;2024-03-29T06:54:23;27.48;;;16.30;;
28028;SDS011;15345;59.364;18.016;2024-03-29T06:55:46;28.67;;;16.90;;
28028;SDS011;15345;59.364;18.016;2024-03-29T06:57:07;26.80;;;16.00;;
28028;SDS011;15345;59.364;18.016;2024-03-29T06:58:28;27.30;;;15.27;;
28028;SDS011;15345;59.364;18.016;2024-03-29T06:59:47;29.13;;;16.48;;
28028;SDS011;15345;59.364;18.016;2024-03-29T07:01:05;27.50;;;16.00;;
28028;SDS011;15345;59.364;18.016;2024-03-29T07:02:25;28.75;;;17.13;;
28028;SDS011;15345;59.364;18.016;2024-03-29T07:03:45;30.50;;;16.63;;
28028;SDS011;15345;59.364;18.016;2024-03-29T07:05:04;29.40;;;17.20;;
28028;SDS011;15345;59.364;18.016;2024-03-29T07:06:26;25.70;;;17.13;;
28028;SDS011;15345;59.364;18.016;2024-03-29T07:07:45;27.88;;;17.55;;
28028;SDS011;15345;59.364;18.016;2024-03-29T07:09:06;31.55;;;17.30;;
28028;SDS011;15345;59.364;18.016;2024-03-29T07:10:24;27.73;;;16.90;;
28028;SDS011;15345;59.364;18.016;2024-03-29T07:11:44;32.08;;;17.15;;
28028;SDS011;15345;59.364;18.016;2024-03-29T07:13:04;28.17;;;15.23;;
28028;SDS011;15345;59.364;18.016;2024-03-29T07:14:23;30.08;;;17.17;;
28028;SDS011;15345;59.364;18.016;2024-03-29T07:15:50;24.52;;;15.43;;
28028;SDS011;15345;59.364;18.016;2024-03-29T07:17:09;22.30;;;14.98;;
28028;SDS011;15345;59.364;18.016;2024-03-29T07:18:28;24.83;;;14.82;;
28028;SDS011;15345;59.364;18.016;2024-03-29T07:19:48;23.80;;;14.57;;
28028;SDS011;15345;59.364;18.016;2024-03-29T07:21:07;21.95;;;14.27;;
28028;SDS011;15345;59.364;18.016;2024-03-29T07:22:26;24.80;;;15.63;;
28028;SDS011;15345;59.364;18.016;2024-03-29T07:23:47;20.85;;;14.40;;
28028;SDS011;15345;59.364;18.016;2024-03-29T07:25:06;23.98;;;14.80;;
28028;SDS011;15345;59.364;18.016;2024-03-29T07:26:25;23.33;;;13.05;;
28028;SDS011;15345;59.364;18.016;2024-03-29T07:27:44;16.92;;;12.65;;
28028;SDS011;15345;59.364;18.016;2024-03-29T07:29:05;23.92;;;13.68;;
28028;SDS011;15345;59.364;18.016;2024-03-29T07:30:24;19.40;;;12.50;;
28028;SDS011;15345;59.364;18.016;2024-03-29T07:31:43;16.98;;;12.00;;
28028;SDS011;15345;59.364;18.016;2024-03-29T07:33:02;14.73;;;11.10;;
28028;SDS011;15345;59.364;18.016;2024-03-29T07:34:21;18.75;;;12.90;;
28028;SDS011;15345;59.364;18.016;2024-03-29T07:35:40;17.08;;;12.75;;
28028;SDS011;15345;59.364;18.016;2024-03-29T07:37:00;16.17;;;12.63;;
28028;SDS011;15345;59.364;18.016;2024-03-29T07:38:20;18.23;;;11.68;;